createdAt,value
2019-02-12T00:01:26.297Z,101834.01
2019-02-12T00:03:57.285Z,101832.73
2019-02-12T00:06:30.701Z,101825.34
2019-02-12T00:09:01.129Z,101821.80
2019-02-12T00:11:31.881Z,101822.62
2019-02-12T00:14:03.311Z,101825.34
2019-02-12T00:16:34.193Z,101840.33
2019-02-12T00:19:04.759Z,101830.63
2019-02-12T00:21:35.082Z,101835.82
2019-02-12T00:24:05.413Z,101834.83
2019-02-12T00:26:35.808Z,101841.34
2019-02-12T00:29:06.269Z,101843.45
2019-02-12T00:31:36.569Z,101841.63
2019-02-12T00:34:07.368Z,101846.46
2019-02-12T00:36:37.883Z,101852.20
2019-02-12T00:39:08.227Z,101845.63
2019-02-12T00:41:38.578Z,101840.80
2019-02-12T00:44:08.964Z,101846.59
2019-02-12T00:46:39.378Z,101839.63
2019-02-12T00:49:10.068Z,101842.67
2019-02-12T00:51:40.445Z,101842.27
2019-02-12T00:54:12.154Z,101851.91
2019-02-12T00:56:42.545Z,101862.02
2019-02-12T00:59:13.052Z,101864.25
2019-02-12T01:01:43.469Z,101870.48
2019-02-12T01:04:14.183Z,101871.80
2019-02-12T01:06:44.853Z,101865.61
2019-02-12T01:09:17.824Z,101876.59
2019-02-12T01:11:48.237Z,101872.54
2019-02-12T01:14:18.676Z,101863.71
2019-02-12T01:16:49.997Z,101859.21
2019-02-12T01:19:20.302Z,101863.50
2019-02-12T01:21:50.496Z,101878.81
2019-02-12T01:24:20.749Z,101876.53
2019-02-12T01:26:54.947Z,101888.84
2019-02-12T01:29:25.458Z,101895.84
2019-02-12T01:31:55.638Z,101894.58
2019-02-12T01:34:26.882Z,101898.86
2019-02-12T01:36:58.170Z,101902.78
2019-02-12T01:39:28.526Z,101906.75
2019-02-12T01:41:58.963Z,101911.13
2019-02-12T01:44:29.364Z,101907.98
2019-02-12T01:46:59.726Z,101910.25
2019-02-12T01:49:30.098Z,101905.33
2019-02-12T01:52:00.625Z,101905.30
2019-02-12T01:54:31.274Z,101907.52
2019-02-12T01:57:01.965Z,101906.03
2019-02-12T01:59:32.130Z,101912.14
2019-02-12T02:02:02.702Z,101896.28
2019-02-12T02:04:33.043Z,101896.28
2019-02-12T02:07:03.284Z,101899.80
2019-02-12T02:09:33.726Z,101902.89
2019-02-12T02:12:04.011Z,101903.30
2019-02-12T02:14:34.507Z,101907.77
2019-02-12T02:17:04.747Z,101898.97
2019-02-12T02:19:35.107Z,101899.79
2019-02-12T02:22:05.444Z,101892.73
2019-02-12T02:24:35.949Z,101900.66
2019-02-12T02:27:06.204Z,101903.34
2019-02-12T02:29:36.547Z,101913.14
2019-02-12T02:32:06.836Z,101915.78
2019-02-12T02:34:37.050Z,101902.07
2019-02-12T02:37:07.401Z,101902.43
2019-02-12T02:39:41.068Z,101906.84
2019-02-12T02:42:12.433Z,101899.84
2019-02-12T02:44:42.661Z,101903.47
2019-02-12T02:47:12.943Z,101899.10
2019-02-12T02:49:43.512Z,101895.63
2019-02-12T02:52:14.133Z,101895.63
2019-02-12T02:54:44.348Z,101907.52
2019-02-12T02:57:14.872Z,101910.22
2019-02-12T02:59:45.386Z,101910.63
2019-02-12T03:02:16.125Z,101911.81
2019-02-12T03:04:46.414Z,101908.67
2019-02-12T03:07:16.664Z,101918.28
2019-02-12T03:09:47.035Z,101928.50
2019-02-12T03:12:18.471Z,101926.77
2019-02-12T03:14:49.094Z,101931.72
2019-02-12T03:17:19.330Z,101936.50
2019-02-12T03:19:53.845Z,101940.88
2019-02-12T03:22:26.245Z,101941.63
2019-02-12T03:24:56.549Z,101956.28
2019-02-12T03:27:27.291Z,101953.97
2019-02-12T03:29:57.877Z,101954.34
2019-02-12T03:32:28.433Z,101966.77
2019-02-12T03:34:58.848Z,101966.44
2019-02-12T03:37:29.274Z,101967.48
2019-02-12T03:40:00.185Z,101970.08
2019-02-12T03:42:31.285Z,101967.59
2019-02-12T03:45:01.583Z,101967.06
2019-02-12T03:47:32.026Z,101969.45
2019-02-12T03:50:02.483Z,101969.45
2019-02-12T03:52:32.844Z,101974.28
2019-02-12T03:55:03.171Z,101983.16
2019-02-12T03:57:33.569Z,101988.44
2019-02-12T04:00:04.609Z,101983.69
2019-02-12T04:02:34.926Z,101985.72
2019-02-12T04:05:05.740Z,101992.33
2019-02-12T04:07:36.176Z,101997.84
2019-02-12T04:10:06.775Z,102005.12
2019-02-12T04:12:37.017Z,102005.08
2019-02-12T04:15:08.647Z,101999.72
2019-02-12T04:17:39.379Z,101997.94
2019-02-12T04:20:09.938Z,102001.95
2019-02-12T04:22:40.304Z,101999.37
2019-02-12T04:25:10.636Z,102003.05
2019-02-12T04:27:40.980Z,102002.63
2019-02-12T04:30:11.174Z,102002.22
2019-02-12T04:32:41.327Z,102002.72
2019-02-12T04:35:11.641Z,101999.77
2019-02-12T04:37:42.267Z,101991.52
2019-02-12T04:40:12.530Z,101997.28
2019-02-12T04:42:42.771Z,101997.36
2019-02-12T04:45:13.493Z,102013.66
2019-02-12T04:47:43.895Z,102014.18
2019-02-12T04:50:14.248Z,102014.18
2019-02-12T04:52:44.463Z,102017.31
2019-02-12T04:55:14.966Z,102022.17
2019-02-12T04:57:45.455Z,102033.26
2019-02-12T05:00:16.538Z,102037.67
2019-02-12T05:02:46.881Z,102033.75
2019-02-12T05:05:17.246Z,102028.19
2019-02-12T05:07:47.465Z,102036.91
2019-02-12T05:10:18.770Z,102044.48
2019-02-12T05:12:49.174Z,102045.80
2019-02-12T05:15:19.546Z,102050.56
2019-02-12T05:17:49.848Z,102048.41
2019-02-12T05:20:20.125Z,102049.27
2019-02-12T05:22:50.708Z,102048.51
2019-02-12T05:25:21.330Z,102055.48
2019-02-12T05:27:51.656Z,102055.45
2019-02-12T05:30:22.950Z,102059.06
2019-02-12T05:32:53.536Z,102064.77
2019-02-12T05:35:23.895Z,102062.58
2019-02-12T05:37:55.622Z,102060.77
2019-02-12T05:40:25.975Z,102065.14
2019-02-12T05:42:56.816Z,102072.16
2019-02-12T05:45:27.070Z,102070.05
2019-02-12T05:47:58.616Z,102070.45
2019-02-12T05:50:29.187Z,102079.22
2019-02-12T05:53:00.049Z,102070.17
2019-02-12T05:55:31.640Z,102073.20
2019-02-12T05:58:02.206Z,102079.66
2019-02-12T06:00:33.900Z,102076.47
2019-02-12T06:03:04.114Z,102071.58
2019-02-12T06:05:34.472Z,102073.77
2019-02-12T06:08:04.695Z,102077.27
2019-02-12T06:10:34.977Z,102073.83
2019-02-12T06:13:05.317Z,102079.01
2019-02-12T06:15:35.492Z,102089.50
2019-02-12T06:18:05.958Z,102093.53
2019-02-12T06:20:36.243Z,102096.59
2019-02-12T06:23:06.540Z,102095.75
2019-02-12T06:25:37.808Z,102103.67
2019-02-12T06:28:08.366Z,102098.91
2019-02-12T06:30:38.725Z,102106.00
2019-02-12T06:33:09.203Z,102101.66
2019-02-12T06:35:39.513Z,102106.16
2019-02-12T06:38:10.408Z,102108.83
2019-02-12T06:40:40.965Z,102109.28
2019-02-12T06:43:15.476Z,102112.82
2019-02-12T06:45:45.741Z,102122.48
2019-02-12T06:48:16.401Z,102140.12
2019-02-12T06:50:47.752Z,102142.63
2019-02-12T06:53:18.488Z,102143.44
2019-02-12T06:55:49.090Z,102142.41
2019-02-12T06:58:19.611Z,102144.24
2019-02-12T07:00:50.045Z,102145.05
2019-02-12T07:03:26.037Z,102156.03
2019-02-12T07:06:13.872Z,102157.54
2019-02-12T07:08:57.197Z,102166.81
2019-02-12T07:12:02.709Z,102166.36
2019-02-12T07:14:41.332Z,102178.17
2019-02-12T07:17:58.672Z,102186.58
2019-02-12T07:21:04.399Z,102187.00
2019-02-12T07:24:13.428Z,102192.28
2019-02-12T07:27:20.344Z,102193.47
2019-02-12T07:30:16.833Z,102206.04
2019-02-12T07:33:14.673Z,102206.91
2019-02-12T07:36:20.220Z,102210.69
2019-02-12T07:39:34.737Z,102215.35
2019-02-12T07:42:37.569Z,102205.63
2019-02-12T07:45:37.731Z,102210.29
2019-02-12T07:48:58.227Z,102212.06
2019-02-12T07:52:03.528Z,102212.48
2019-02-12T07:55:16.633Z,102218.53
2019-02-12T07:58:16.018Z,102221.56
2019-02-12T08:01:08.283Z,102230.67
2019-02-12T08:04:16.313Z,102245.11
2019-02-12T08:07:16.508Z,102249.00
2019-02-12T08:10:11.605Z,102246.84
2019-02-12T08:13:00.320Z,102254.25
2019-02-12T08:15:50.491Z,102254.36
2019-02-12T08:18:46.642Z,102260.00
2019-02-12T08:21:34.216Z,102262.98
2019-02-12T08:24:54.504Z,102267.75
2019-02-12T08:28:06.915Z,102277.08
2019-02-12T08:31:20.496Z,102272.87
2019-02-12T08:34:35.635Z,102283.30
2019-02-12T08:37:29.146Z,102292.34
2019-02-12T08:40:45.442Z,102294.44
2019-02-12T08:43:35.138Z,102296.30
2019-02-12T08:46:44.670Z,102296.23
2019-02-12T08:49:57.908Z,102304.63
2019-02-12T08:53:09.350Z,102303.00
2019-02-12T08:56:24.334Z,102306.31
2019-02-12T08:59:23.271Z,102306.31
2019-02-12T09:02:32.979Z,102314.33
2019-02-12T09:05:27.777Z,102307.53
2019-02-12T09:08:13.164Z,102309.76
2019-02-12T09:11:04.575Z,102317.98
2019-02-12T09:14:25.442Z,102318.28
2019-02-12T09:17:33.753Z,102316.64
2019-02-12T09:20:26.859Z,102316.92
2019-02-12T09:23:31.741Z,102318.58
2019-02-12T09:27:03.668Z,102324.23
2019-02-12T09:30:37.279Z,102329.02
2019-02-12T09:33:41.945Z,102338.20
2019-02-12T09:36:33.398Z,102333.66
2019-02-12T09:39:30.285Z,102336.26
2019-02-12T09:42:19.112Z,102350.22
2019-02-12T09:45:04.916Z,102345.16
2019-02-12T09:48:00.669Z,102358.86
2019-02-12T09:50:42.514Z,102357.76
2019-02-12T09:53:40.908Z,102354.33
2019-02-12T09:56:36.098Z,102361.63
2019-02-12T09:59:26.484Z,102367.27
2019-02-12T10:02:52.121Z,102367.84
2019-02-12T10:05:47.805Z,102370.23
2019-02-12T10:08:59.887Z,102374.36
2019-02-12T10:11:48.467Z,102385.47
2019-02-12T10:14:36.601Z,102385.42
2019-02-12T10:17:13.787Z,102393.56
2019-02-12T10:20:25.267Z,102402.37
2019-02-12T10:23:41.014Z,102411.26
2019-02-12T10:26:14.034Z,102410.72
2019-02-12T10:28:59.954Z,102418.58
2019-02-12T10:31:48.810Z,102424.73
2019-02-12T10:34:19.108Z,102422.22
2019-02-12T10:36:49.476Z,102419.95
2019-02-12T10:39:20.054Z,102428.34
2019-02-12T10:41:50.705Z,102429.03
2019-02-12T10:44:20.994Z,102424.29
2019-02-12T10:46:51.808Z,102427.17
2019-02-12T10:49:22.237Z,102424.52
2019-02-12T10:51:53.964Z,102429.39
2019-02-12T10:54:27.964Z,102423.55
2019-02-12T10:56:56.543Z,102422.83
2019-02-12T10:59:27.345Z,102420.33
2019-02-12T11:01:57.644Z,102411.59
2019-02-12T11:04:29.166Z,102414.27
2019-02-12T11:06:59.579Z,102412.61
2019-02-12T11:09:29.933Z,102421.16
2019-02-12T11:12:00.352Z,102415.89
2019-02-12T11:14:31.060Z,102413.59
2019-02-12T11:17:01.604Z,102409.50
2019-02-12T11:19:32.187Z,102416.03
2019-02-12T11:22:02.411Z,102411.31
2019-02-12T11:24:35.580Z,102408.02
2019-02-12T11:27:04.870Z,102400.77
2019-02-12T11:29:35.350Z,102403.78
2019-02-12T11:32:06.309Z,102408.37
2019-02-12T11:34:37.281Z,102411.20
2019-02-12T11:37:07.564Z,102417.84
2019-02-12T11:39:39.968Z,102417.77
2019-02-12T11:42:10.703Z,102427.08
2019-02-12T11:44:41.497Z,102427.20
2019-02-12T11:47:12.842Z,102424.93
2019-02-12T11:49:43.487Z,102428.45
2019-02-12T11:52:13.856Z,102432.52
2019-02-12T11:54:44.228Z,102429.49
2019-02-12T11:57:17.420Z,102435.77
2019-02-12T11:59:47.897Z,102441.39
2019-02-12T12:02:20.301Z,102441.52
2019-02-12T12:04:50.662Z,102442.80
2019-02-12T12:07:20.989Z,102440.73
2019-02-12T12:09:51.699Z,102445.64
2019-02-12T12:12:22.078Z,102434.91
2019-02-12T12:14:54.872Z,102432.02
2019-02-12T12:17:25.491Z,102431.99
2019-02-12T12:19:55.924Z,102432.17
2019-02-12T12:22:26.166Z,102430.64
2019-02-12T12:24:56.702Z,102425.78
2019-02-12T12:27:28.080Z,102426.55
2019-02-12T12:29:58.493Z,102437.66
2019-02-12T12:32:28.905Z,102446.56
2019-02-12T12:34:59.302Z,102444.26
2019-02-12T12:37:29.653Z,102441.95
2019-02-12T12:40:00.511Z,102441.83
2019-02-12T12:42:30.812Z,102444.57
2019-02-12T12:45:01.103Z,102444.92
2019-02-12T12:47:31.512Z,102452.59
2019-02-12T12:50:03.957Z,102447.81
2019-02-12T12:52:34.258Z,102444.84
2019-02-12T12:55:04.589Z,102449.68
2019-02-12T12:57:41.622Z,102448.41
2019-02-12T13:00:09.794Z,102444.72
2019-02-12T13:02:40.133Z,102447.96
2019-02-12T13:05:11.188Z,102454.02
2019-02-12T13:07:41.492Z,102455.77
2019-02-12T13:10:13.526Z,102455.18
2019-02-12T13:12:43.877Z,102449.47
2019-02-12T13:15:14.193Z,102451.23
2019-02-12T13:17:44.586Z,102451.95
2019-02-12T13:20:15.990Z,102456.13
2019-02-12T13:22:46.434Z,102449.99
2019-02-12T13:25:16.741Z,102449.75
2019-02-12T13:27:48.106Z,102452.70
2019-02-12T13:30:18.405Z,102449.52
2019-02-12T13:32:48.660Z,102439.28
2019-02-12T13:35:19.016Z,102435.70
2019-02-12T13:37:49.341Z,102435.11
2019-02-12T13:40:19.665Z,102440.84
2019-02-12T13:42:50.200Z,102442.22
2019-02-12T13:45:20.522Z,102434.64
2019-02-12T13:47:50.824Z,102431.66
2019-02-12T13:50:22.194Z,102436.59
2019-02-12T13:52:53.228Z,102443.37
2019-02-12T13:55:23.521Z,102436.14
2019-02-12T13:57:53.942Z,102450.09
2019-02-12T14:00:24.338Z,102444.61
2019-02-12T14:02:54.614Z,102441.48
2019-02-12T14:05:24.941Z,102442.93
2019-02-12T14:07:55.370Z,102454.97
2019-02-12T14:10:25.751Z,102454.91
2019-02-12T14:12:56.555Z,102460.53
2019-02-12T14:15:27.179Z,102460.80
2019-02-12T14:17:57.472Z,102462.42
2019-02-12T14:20:27.833Z,102461.38
2019-02-12T14:22:58.557Z,102464.89
2019-02-12T14:25:28.918Z,102466.63
2019-02-12T14:27:59.322Z,102465.30
2019-02-12T14:30:35.906Z,102463.34
2019-02-12T14:33:06.198Z,102463.80
2019-02-12T14:35:36.649Z,102466.57
2019-02-12T14:38:06.960Z,102464.15
2019-02-12T14:40:38.118Z,102462.23
2019-02-12T14:43:13.911Z,102462.30
2019-02-12T14:45:40.562Z,102462.47
2019-02-12T14:48:11.145Z,102463.44
2019-02-12T14:50:41.925Z,102462.41
2019-02-12T14:53:12.276Z,102471.16
2019-02-12T14:55:43.693Z,102476.17
2019-02-12T14:58:13.948Z,102474.09
2019-02-12T15:00:44.376Z,102479.85
2019-02-12T15:03:14.828Z,102480.95
2019-02-12T15:05:45.123Z,102479.61
2019-02-12T15:08:15.663Z,102472.90
2019-02-12T15:10:46.138Z,102468.16
2019-02-12T15:13:21.051Z,102472.71
2019-02-12T15:15:51.350Z,102475.94
2019-02-12T15:18:21.809Z,102477.73
2019-02-12T15:20:52.444Z,102478.95
2019-02-12T15:23:24.048Z,102478.90
2019-02-12T15:25:54.334Z,102473.17
2019-02-12T15:28:24.521Z,102473.85
2019-02-12T15:30:57.014Z,102478.16
2019-02-12T15:33:27.626Z,102481.03
2019-02-12T15:35:58.162Z,102474.58
2019-02-12T15:38:30.115Z,102484.86
2019-02-12T15:41:00.402Z,102487.30
2019-02-12T15:43:30.956Z,102494.52
2019-02-12T15:46:01.210Z,102487.97
2019-02-12T15:48:31.540Z,102495.17
2019-02-12T15:51:01.734Z,102500.42
2019-02-12T15:53:32.183Z,102489.39
2019-02-12T15:56:02.555Z,102491.03
2019-02-12T15:58:33.331Z,102483.88
2019-02-12T16:01:06.073Z,102479.48
2019-02-12T16:03:38.211Z,102469.78
2019-02-12T16:06:08.582Z,102463.59
2019-02-12T16:08:38.909Z,102463.64
2019-02-12T16:11:10.528Z,102468.04
2019-02-12T16:13:44.665Z,102461.50
2019-02-12T16:16:15.314Z,102463.23
2019-02-12T16:18:47.741Z,102469.02
2019-02-12T16:21:17.744Z,102472.07
2019-02-12T16:23:48.538Z,102465.48
2019-02-12T16:26:20.058Z,102468.95
2019-02-12T16:28:50.353Z,102468.86
2019-02-12T16:31:21.366Z,102462.47
2019-02-12T16:33:52.866Z,102457.06
2019-02-12T16:36:23.247Z,102452.26
2019-02-12T16:38:53.576Z,102446.02
2019-02-12T16:41:24.152Z,102451.75
2019-02-12T16:43:54.533Z,102458.13
2019-02-12T16:46:25.172Z,102453.99
2019-02-12T16:48:56.019Z,102456.23
2019-02-12T16:51:26.460Z,102453.13
2019-02-12T16:53:57.933Z,102452.16
2019-02-12T16:56:30.321Z,102442.55
2019-02-12T16:59:03.542Z,102457.73
2019-02-12T17:01:33.230Z,102448.78
2019-02-12T17:04:11.213Z,102453.22
2019-02-12T17:06:43.575Z,102457.98
2019-02-12T17:09:14.284Z,102458.39
2019-02-12T17:11:44.635Z,102460.23
2019-02-12T17:14:15.157Z,102461.97
2019-02-12T17:16:45.552Z,102461.09
2019-02-12T17:19:16.204Z,102447.19
2019-02-12T17:21:46.695Z,102455.33
2019-02-12T17:24:17.277Z,102450.32
2019-02-12T17:26:47.865Z,102457.37
2019-02-12T17:29:18.218Z,102458.03
2019-02-12T17:31:48.835Z,102448.06
2019-02-12T17:34:19.368Z,102454.36
2019-02-12T17:36:49.732Z,102448.52
2019-02-12T17:39:20.529Z,102450.56
2019-02-12T17:41:50.951Z,102452.77
2019-02-12T17:44:21.208Z,102443.00
2019-02-12T17:46:51.575Z,102444.74
2019-02-12T17:49:22.459Z,102442.09
2019-02-12T17:51:56.583Z,102445.66
2019-02-12T17:54:28.367Z,102441.77
2019-02-12T17:57:01.032Z,102436.41
2019-02-12T17:59:33.043Z,102437.28
2019-02-12T18:02:03.621Z,102435.40
2019-02-12T18:04:35.006Z,102424.67
2019-02-12T18:07:05.906Z,102425.94
2019-02-12T18:09:36.396Z,102424.61
2019-02-12T18:12:06.961Z,102420.27
2019-02-12T18:14:37.599Z,102430.95
2019-02-12T18:17:08.108Z,102425.64
2019-02-12T18:19:40.143Z,102419.56
2019-02-12T18:22:12.895Z,102421.87
2019-02-12T18:24:43.676Z,102421.30
2019-02-12T18:27:17.701Z,102419.14
2019-02-12T18:29:51.900Z,102413.39
2019-02-12T18:32:25.841Z,102412.57
2019-02-12T18:34:57.940Z,102412.77
2019-02-12T18:37:29.053Z,102408.38
2019-02-12T18:40:00.501Z,102399.96
2019-02-12T18:42:31.311Z,102394.80
2019-02-12T18:45:08.989Z,102398.20
2019-02-12T18:47:39.597Z,102402.05
2019-02-12T18:50:13.644Z,102402.97
2019-02-12T18:52:45.151Z,102393.16
2019-02-12T18:55:18.203Z,102385.36
2019-02-12T18:57:49.340Z,102381.98
2019-02-12T19:00:20.999Z,102382.89
2019-02-12T19:03:03.474Z,102380.94
2019-02-12T19:05:26.119Z,102387.84
2019-02-12T19:07:57.259Z,102378.86
2019-02-12T19:10:28.152Z,102384.10
2019-02-12T19:12:58.760Z,102384.10
2019-02-12T19:15:29.454Z,102371.79
2019-02-12T19:18:13.086Z,102377.73
2019-02-12T19:20:45.824Z,102380.23
2019-02-12T19:23:18.633Z,102377.99
2019-02-12T19:25:52.601Z,102379.48
2019-02-12T19:28:25.627Z,102374.37
2019-02-12T19:30:56.512Z,102376.11
2019-02-12T19:33:30.786Z,102371.77
2019-02-12T19:36:22.424Z,102373.91
2019-02-12T19:38:53.305Z,102375.04
2019-02-12T19:41:24.621Z,102372.80
2019-02-12T19:43:58.598Z,102368.40
2019-02-12T19:46:30.258Z,102366.66
2019-02-12T19:49:01.032Z,102360.98
2019-02-12T19:51:31.724Z,102355.28
2019-02-12T19:54:04.590Z,102350.98
2019-02-12T19:56:36.063Z,102367.02
2019-02-12T19:59:06.568Z,102374.16
2019-02-12T20:01:39.636Z,102371.97
2019-02-12T20:04:10.043Z,102376.00
2019-02-12T20:06:43.249Z,102377.28
2019-02-12T20:09:20.561Z,102372.06
2019-02-12T20:11:51.217Z,102369.30
2019-02-12T20:14:21.640Z,102375.44
2019-02-12T20:16:53.296Z,102367.83
2019-02-12T20:19:23.966Z,102362.42
2019-02-12T20:21:54.566Z,102364.92
2019-02-12T20:24:27.580Z,102368.91
2019-02-12T20:27:06.406Z,102363.91
2019-02-12T20:29:34.011Z,102366.16
2019-02-12T20:32:04.210Z,102363.91
2019-02-12T20:34:34.468Z,102371.30
2019-02-12T20:37:04.999Z,102371.56
2019-02-12T20:39:35.392Z,102375.05
2019-02-12T20:42:05.875Z,102377.27
2019-02-12T20:44:36.142Z,102381.83
2019-02-12T20:47:06.026Z,102392.77
2019-02-12T20:49:36.345Z,102392.95
2019-02-12T20:52:08.128Z,102388.67
2019-02-12T20:54:39.772Z,102375.59
2019-02-12T20:57:14.947Z,102366.76
2019-02-12T20:59:42.665Z,102365.89
2019-02-12T21:02:13.135Z,102372.06
2019-02-12T21:04:43.776Z,102375.64
2019-02-12T21:07:14.644Z,102379.16
2019-02-12T21:09:45.392Z,102385.41
2019-02-12T21:12:16.578Z,102375.70
2019-02-12T21:14:46.969Z,102371.72
2019-02-12T21:17:17.492Z,102369.16
2019-02-12T21:19:47.767Z,102384.67
2019-02-12T21:22:18.950Z,102370.99
2019-02-12T21:24:50.438Z,102364.01
2019-02-12T21:27:23.381Z,102354.31
2019-02-12T21:29:54.105Z,102347.36
2019-02-12T21:32:24.857Z,102357.67
2019-02-12T21:34:55.503Z,102355.00
2019-02-12T21:37:27.359Z,102359.87
2019-02-12T21:40:01.869Z,102366.50
2019-02-12T21:42:32.842Z,102371.75
2019-02-12T21:45:03.582Z,102369.59
2019-02-12T21:47:34.098Z,102354.56
2019-02-12T21:50:06.100Z,102357.66
2019-02-12T21:52:37.154Z,102373.48
2019-02-12T21:55:08.632Z,102380.16
2019-02-12T21:57:42.253Z,102367.72
2019-02-12T22:00:16.768Z,102371.66
2019-02-12T22:02:50.241Z,102360.12
2019-02-12T22:05:25.946Z,102362.27
2019-02-12T22:08:02.211Z,102349.41
2019-02-12T22:10:33.114Z,102370.69
2019-02-12T22:13:03.827Z,102369.82
2019-02-12T22:15:34.613Z,102384.38
2019-02-12T22:18:05.430Z,102382.59
2019-02-12T22:20:36.009Z,102366.65
2019-02-12T22:23:06.413Z,102360.44
2019-02-12T22:25:37.605Z,102371.05
2019-02-12T22:28:07.902Z,102371.56
2019-02-12T22:30:38.567Z,102363.55
2019-02-12T22:33:11.253Z,102376.82
2019-02-12T22:35:41.827Z,102355.63
2019-02-12T22:38:12.764Z,102346.34
2019-02-12T22:40:43.106Z,102378.61
2019-02-12T22:43:13.343Z,102388.41
2019-02-12T22:45:43.780Z,102383.09
2019-02-12T22:48:14.160Z,102376.87
2019-02-12T22:50:44.730Z,102385.23
2019-02-12T22:53:15.223Z,102394.47
2019-02-12T22:55:46.332Z,102386.51
2019-02-12T22:58:16.790Z,102393.46
2019-02-12T23:01:06.997Z,102400.09
2019-02-12T23:03:37.920Z,102392.18
2019-02-12T23:06:08.534Z,102385.95
2019-02-12T23:08:39.243Z,102396.12
2019-02-12T23:11:09.827Z,102387.69
2019-02-12T23:13:40.175Z,102393.37
2019-02-12T23:16:11.413Z,102392.59
2019-02-12T23:18:42.192Z,102391.67
2019-02-12T23:21:12.761Z,102394.22
2019-02-12T23:23:43.169Z,102378.30
2019-02-12T23:26:13.512Z,102375.64
2019-02-12T23:28:43.936Z,102366.91
2019-02-12T23:31:14.418Z,102359.41
2019-02-12T23:33:45.896Z,102354.15
2019-02-12T23:36:16.305Z,102360.88
2019-02-12T23:38:47.056Z,102347.67
2019-02-12T23:41:17.717Z,102351.75
2019-02-12T23:43:48.382Z,102343.38
2019-02-12T23:46:19.191Z,102331.94
2019-02-12T23:48:50.028Z,102337.75
2019-02-12T23:51:21.165Z,102343.53
2019-02-12T23:53:54.536Z,102340.83
2019-02-12T23:56:24.757Z,102339.14
2019-02-12T23:58:55.178Z,102336.95
